createdAt,value
2022-12-31T00:04:51.142Z,66.95
2022-12-31T00:09:59.764Z,72.49
2022-12-31T00:15:07.745Z,75.57
2022-12-31T00:20:16.486Z,69.65
2022-12-31T00:25:24.758Z,66.40
2022-12-31T00:30:33.455Z,57.64
2022-12-31T00:35:41.522Z,68.95
2022-12-31T00:40:49.908Z,66.39
2022-12-31T00:45:58.257Z,67.41
2022-12-31T00:51:06.683Z,69.74
2022-12-31T00:56:15.150Z,68.75
2022-12-31T01:01:23.850Z,65.88
2022-12-31T01:06:31.905Z,72.84
2022-12-31T01:11:40.297Z,64.92
2022-12-31T01:16:48.746Z,67.89
2022-12-31T01:21:57.569Z,76.14
2022-12-31T01:27:05.913Z,74.61
2022-12-31T01:32:14.857Z,62.06
2022-12-31T01:37:22.895Z,87.55
2022-12-31T01:42:31.431Z,112.33
2022-12-31T01:47:39.912Z,131.67
2022-12-31T01:52:48.355Z,120.62
2022-12-31T01:57:56.714Z,115.97
2022-12-31T02:03:05.143Z,85.87
2022-12-31T02:08:13.248Z,84.13
2022-12-31T02:13:21.911Z,78.44
2022-12-31T02:18:30.142Z,69.33
2022-12-31T02:23:38.703Z,69.82
2022-12-31T02:28:47.081Z,87.90
2022-12-31T02:33:55.305Z,116.32
2022-12-31T02:39:03.963Z,129.61
2022-12-31T02:44:12.744Z,141.63
2022-12-31T02:49:20.959Z,144.74
2022-12-31T02:54:29.726Z,141.55
2022-12-31T02:59:38.042Z,128.93
2022-12-31T03:04:46.922Z,130.96
2022-12-31T03:09:55.226Z,114.70
2022-12-31T03:15:03.803Z,101.78
2022-12-31T03:20:12.055Z,107.68
2022-12-31T03:25:21.122Z,121.10
2022-12-31T03:30:29.500Z,117.45
2022-12-31T03:35:37.977Z,107.15
2022-12-31T03:40:46.340Z,92.08
2022-12-31T03:45:55.179Z,88.09
2022-12-31T03:51:03.561Z,89.85
2022-12-31T03:56:12.067Z,83.24
2022-12-31T04:01:20.472Z,69.71
2022-12-31T04:06:29.436Z,80.04
2022-12-31T04:11:37.828Z,79.74
2022-12-31T04:16:46.518Z,67.05
2022-12-31T04:21:54.888Z,61.56
2022-12-31T04:27:07.487Z,59.48
2022-12-31T04:32:11.613Z,48.96
2022-12-31T04:37:20.373Z,51.48
2022-12-31T04:42:28.818Z,54.30
2022-12-31T04:47:37.680Z,52.42
2022-12-31T04:52:46.040Z,56.48
2022-12-31T04:57:54.538Z,51.07
2022-12-31T05:03:03.039Z,55.66
2022-12-31T05:08:11.808Z,53.46
2022-12-31T05:13:20.266Z,50.41
2022-12-31T05:18:28.782Z,56.95
2022-12-31T05:23:36.987Z,69.73
2022-12-31T05:28:45.362Z,65.71
2022-12-31T05:33:53.814Z,71.91
2022-12-31T05:39:02.709Z,62.44
2022-12-31T05:44:11.136Z,56.39
2022-12-31T05:49:19.820Z,61.78
2022-12-31T05:54:28.085Z,68.39
2022-12-31T05:59:36.910Z,66.99
2022-12-31T06:04:45.463Z,65.11
2022-12-31T06:09:54.051Z,69.24
2022-12-31T06:15:02.552Z,89.99
2022-12-31T06:20:13.344Z,84.27
2022-12-31T06:25:19.789Z,93.73
2022-12-31T06:30:28.247Z,78.40
2022-12-31T06:35:36.767Z,99.34
2022-12-31T06:40:45.725Z,102.90
2022-12-31T06:45:54.342Z,88.95
2022-12-31T06:51:03.155Z,69.08
2022-12-31T06:56:11.997Z,64.70
2022-12-31T07:01:21.565Z,111.65
2022-12-31T07:06:30.024Z,80.82
2022-12-31T07:11:38.879Z,77.91
2022-12-31T07:16:47.865Z,123.88
2022-12-31T07:21:56.405Z,130.64
2022-12-31T07:27:04.815Z,109.66
2022-12-31T07:32:13.961Z,104.82
2022-12-31T07:37:22.657Z,121.65
2022-12-31T07:42:31.705Z,95.57
2022-12-31T07:47:40.138Z,72.63
2022-12-31T07:52:49.435Z,52.06
2022-12-31T07:57:57.944Z,44.65
2022-12-31T08:03:06.627Z,60.04
2022-12-31T08:08:15.419Z,50.34
2022-12-31T08:13:24.675Z,41.60
2022-12-31T08:18:33.054Z,38.63
2022-12-31T08:23:41.741Z,35.00
2022-12-31T08:28:50.843Z,34.56
2022-12-31T08:34:03.834Z,26.94
2022-12-31T08:39:07.523Z,30.65
2022-12-31T08:44:16.719Z,29.92
2022-12-31T08:49:25.434Z,28.01
2022-12-31T08:54:34.162Z,24.21
2022-12-31T08:59:42.669Z,33.89
2022-12-31T09:04:51.283Z,29.19
2022-12-31T09:09:59.813Z,33.87
2022-12-31T09:15:08.713Z,28.48
2022-12-31T09:20:17.314Z,21.79
2022-12-31T09:25:26.067Z,29.13
2022-12-31T09:30:34.816Z,20.72
2022-12-31T09:35:43.189Z,22.87
2022-12-31T09:40:51.932Z,24.37
2022-12-31T09:46:00.685Z,19.36
2022-12-31T09:51:09.083Z,20.43
2022-12-31T09:56:18.134Z,22.57
2022-12-31T10:01:27.030Z,19.18
2022-12-31T10:06:35.568Z,19.18
2022-12-31T10:11:43.854Z,20.44
2022-12-31T10:16:52.639Z,19.09
2022-12-31T10:22:01.098Z,19.09
2022-12-31T10:27:10.091Z,19.53
2022-12-31T10:32:18.767Z,18.01
2022-12-31T10:37:27.831Z,17.35
2022-12-31T10:42:36.369Z,17.68
2022-12-31T10:47:45.621Z,19.40
2022-12-31T10:52:53.790Z,15.77
2022-12-31T10:58:04.464Z,16.86
2022-12-31T11:03:10.788Z,16.12
2022-12-31T11:08:19.967Z,16.33
2022-12-31T11:13:28.698Z,16.81
2022-12-31T11:18:37.830Z,17.76
2022-12-31T11:23:46.447Z,22.41
2022-12-31T11:28:55.246Z,16.46
2022-12-31T11:34:03.780Z,15.03
2022-12-31T11:39:12.685Z,13.62
2022-12-31T11:44:21.313Z,15.97
2022-12-31T11:49:30.179Z,17.72
2022-12-31T11:54:38.642Z,19.11
2022-12-31T11:59:47.205Z,21.01
2022-12-31T12:04:55.892Z,17.09
2022-12-31T12:10:04.751Z,16.56
2022-12-31T12:15:13.300Z,13.46
2022-12-31T12:20:22.238Z,17.27
2022-12-31T12:25:31.189Z,16.79
2022-12-31T12:30:40.638Z,20.30
2022-12-31T12:35:48.979Z,15.17
2022-12-31T12:40:57.696Z,15.13
2022-12-31T12:46:05.995Z,14.13
2022-12-31T12:51:14.902Z,13.51
2022-12-31T12:56:23.251Z,13.31
2022-12-31T13:01:32.216Z,13.18
2022-12-31T13:06:40.648Z,13.52
2022-12-31T13:11:49.226Z,14.79
2022-12-31T13:16:57.924Z,23.51
2022-12-31T13:22:06.651Z,21.52
2022-12-31T13:27:14.690Z,38.39
2022-12-31T13:32:23.551Z,20.07
2022-12-31T13:37:32.086Z,23.31
2022-12-31T13:42:40.868Z,15.93
2022-12-31T13:47:49.287Z,16.58
2022-12-31T13:52:57.786Z,14.42
2022-12-31T13:58:06.307Z,14.64
2022-12-31T14:03:15.206Z,15.52
2022-12-31T14:08:23.482Z,16.36
2022-12-31T14:13:34.777Z,17.84
2022-12-31T14:18:41.060Z,16.36
2022-12-31T14:23:50.074Z,16.52
2022-12-31T14:28:58.572Z,17.88
2022-12-31T14:34:07.271Z,18.45
2022-12-31T14:39:15.843Z,17.56
2022-12-31T14:44:24.447Z,20.02
2022-12-31T14:49:33.048Z,18.74
2022-12-31T14:54:42.309Z,20.35
2022-12-31T14:59:50.962Z,19.60
2022-12-31T15:04:59.762Z,20.22
2022-12-31T15:10:08.402Z,22.21
2022-12-31T15:15:17.322Z,25.31
2022-12-31T15:20:25.756Z,25.56
2022-12-31T15:25:40.467Z,28.73
2022-12-31T15:30:42.658Z,32.09
2022-12-31T15:35:51.945Z,31.96
2022-12-31T15:41:00.109Z,37.56
2022-12-31T15:46:09.487Z,38.64
2022-12-31T15:51:18.040Z,40.36
2022-12-31T15:56:26.865Z,48.41
2022-12-31T16:01:35.182Z,48.92
2022-12-31T16:06:48.928Z,40.18
2022-12-31T16:11:51.385Z,34.34
2022-12-31T16:17:00.654Z,33.70
2022-12-31T16:22:09.344Z,29.01
2022-12-31T16:27:18.935Z,31.07
2022-12-31T16:32:27.674Z,32.34
2022-12-31T16:37:36.473Z,37.03
2022-12-31T16:42:44.875Z,40.83
2022-12-31T16:47:54.215Z,50.83
2022-12-31T16:53:03.107Z,49.48
2022-12-31T16:58:12.092Z,54.57
2022-12-31T17:03:20.785Z,55.92
2022-12-31T17:08:29.651Z,65.06
2022-12-31T17:13:38.560Z,55.48
2022-12-31T17:18:47.593Z,55.03
2022-12-31T17:23:56.029Z,53.10
2022-12-31T17:29:08.177Z,49.86
2022-12-31T17:34:06.082Z,57.74
2022-12-31T17:39:14.685Z,69.79
2022-12-31T17:44:23.027Z,72.78
2022-12-31T17:49:31.604Z,77.08
2022-12-31T17:54:40.264Z,73.34
2022-12-31T17:59:48.930Z,65.23
2022-12-31T18:04:57.372Z,79.89
2022-12-31T18:10:06.268Z,83.47
2022-12-31T18:15:14.455Z,77.55
2022-12-31T18:20:23.048Z,89.73
2022-12-31T18:25:31.464Z,89.66
2022-12-31T18:30:40.595Z,108.40
2022-12-31T18:36:08.137Z,87.36
2022-12-31T18:40:57.124Z,82.91
2022-12-31T18:46:06.565Z,89.01
2022-12-31T18:51:15.222Z,103.36
2022-12-31T18:56:23.774Z,86.61
2022-12-31T19:01:33.198Z,89.25
2022-12-31T19:06:41.198Z,90.98
2022-12-31T19:11:49.915Z,91.65
2022-12-31T19:16:58.509Z,90.89
2022-12-31T19:22:06.974Z,84.09
2022-12-31T19:27:14.822Z,94.12
2022-12-31T19:32:23.631Z,86.89
2022-12-31T19:37:32.377Z,90.71
2022-12-31T19:42:41.046Z,79.86
2022-12-31T19:47:49.913Z,77.57
2022-12-31T19:52:59.039Z,78.25
2022-12-31T19:58:07.546Z,72.06
2022-12-31T20:03:16.707Z,63.46
2022-12-31T20:08:25.134Z,61.73
2022-12-31T20:13:34.213Z,59.03
2022-12-31T20:18:42.655Z,54.32
2022-12-31T20:23:51.650Z,61.70
2022-12-31T20:29:00.131Z,58.64
2022-12-31T20:34:08.920Z,64.41
2022-12-31T20:39:17.222Z,70.96
2022-12-31T20:44:26.553Z,78.78
2022-12-31T20:50:00.595Z,69.77
2022-12-31T20:54:44.158Z,65.97
2022-12-31T20:59:53.141Z,69.60
2022-12-31T21:05:01.936Z,73.21
2022-12-31T21:10:10.178Z,68.79
2022-12-31T21:15:19.353Z,74.65
2022-12-31T21:20:27.967Z,85.71
2022-12-31T21:25:36.795Z,77.61
2022-12-31T21:30:45.043Z,78.18
2022-12-31T21:35:54.223Z,87.13
2022-12-31T21:41:01.356Z,86.19
2022-12-31T21:46:10.528Z,101.01
2022-12-31T21:51:18.843Z,115.95
2022-12-31T21:56:27.887Z,105.13
2022-12-31T22:01:36.699Z,105.57
2022-12-31T22:06:45.565Z,110.56
2022-12-31T22:11:54.422Z,120.79
2022-12-31T22:17:02.890Z,109.90
2022-12-31T22:22:11.793Z,88.99
2022-12-31T22:27:29.410Z,86.60
2022-12-31T22:32:28.800Z,90.96
2022-12-31T22:37:57.075Z,93.33
2022-12-31T22:42:45.483Z,97.90
2022-12-31T22:47:54.325Z,104.45
2022-12-31T22:53:02.954Z,102.44
2022-12-31T22:58:11.563Z,113.69
2022-12-31T23:03:20.094Z,101.18
2022-12-31T23:08:28.847Z,87.79
2022-12-31T23:13:37.389Z,107.67
2022-12-31T23:18:45.969Z,134.07
2022-12-31T23:23:54.394Z,98.73
2022-12-31T23:29:03.046Z,107.28
2022-12-31T23:34:11.298Z,146.11
2022-12-31T23:39:20.463Z,123.77
2022-12-31T23:44:29.115Z,148.74
2022-12-31T23:49:37.897Z,124.20
2022-12-31T23:54:46.236Z,151.85
2022-12-31T23:59:55.225Z,181.10
